Adriatic Princess — IVPQ — position and weather

sailwx.info

Track history (hours):
 
Tides and Currents Weather Stations Pressure Air Temp Water Temp Dewpoint Dewpoint Depression Visibility Wind Speed Wind Dir Waves Ship Positions

Adriatic Princess

Last reported at 2017-Aug-22 16:22 UTC. Time now 2017-Aug-24 08:55 UTC.
Position N 40°49' E 014°07'.

Length 32 m; draft 1.8 m.

Type: Ship (hazmat cat B). MMSI: 247165700.

Date/timePositionNaut miles runAvg speedWind from/ knotsBaromVisibWave heightAir tempDewpointWater temp
2017-Aug-22 16:22N 40°49' E 014°07'9 3.4
2017-Aug-22 13:36N 40°45' E 013°56'0 0.0
2017-Aug-22 13:30N 40°45' E 013°56'0 0.0
2017-Aug-22 13:00N 40°45' E 013°56'0 0.0
2017-Aug-22 12:30N 40°45' E 013°56'0 0.8
2017-Aug-22 12:00N 40°45' E 013°57'713.0
2017-Aug-22 11:30N 40°46' E 014°05'3 1.2
2017-Aug-22 08:48N 40°49' E 014°07'5 3.0
2017-Aug-22 07:04N 40°46' E 014°01'213.7
2017-Aug-22 06:55N 40°46' E 014°04'6 0.4
2017-Aug-21 14:09N 40°45' E 013°56'6 2.3
2017-Aug-21 11:31N 40°46' E 014°04'2 0.5
2017-Aug-21 07:10N 40°46' E 014°01'2 0.1
2017-Aug-20 16:17N 40°46' E 014°03'6 2.0
2017-Aug-20 13:25N 40°45' E 013°56'0 0.0
2017-Aug-20 13:00N 40°45' E 013°56'7 5.5
2017-Aug-20 11:41N 40°47' E 014°06'213.4
2017-Aug-20 11:30N 40°49' E 014°06'3 5.6
2017-Aug-20 11:01N 40°46' E 014°05'0 0.3
2017-Aug-20 09:39N 40°46' E 014°04'411.3
2017-Aug-20 09:20N 40°49' E 014°07'8 5.1
2017-Aug-20 07:45N 40°45' E 013°57'8 1.6
2017-Aug-20 02:25N 40°49' E 014°07'1 3.1
2017-Aug-20 02:00N 40°48' E 014°06'611.9
2017-Aug-20 01:30N 40°46' E 013°59'5 0.9
2017-Aug-19 19:48N 40°47' E 014°06'3 3.0
2017-Aug-19 18:54N 40°49' E 014°07'0 0.0
2017-Aug-19 18:06N 40°49' E 014°07'0 0.8
2017-Aug-19 18:00N 40°49' E 014°07'5 7.8
2017-Aug-19 17:21N 40°46' E 014°02'4 2.9
2017-Aug-19 16:02N 40°48' E 014°06'113.1
2017-Aug-19 15:55N 40°49' E 014°07'1 2.8
2017-Aug-19 15:30N 40°48' E 014°06'8 2.3
2017-Aug-19 12:00N 40°45' E 013°57'713.2
2017-Aug-19 11:30N 40°46' E 014°05'6 5.5
2017-Aug-19 10:22N 40°45' E 013°57'0 0.3
2017-Aug-19 09:56N 40°45' E 013°57'811.6
2017-Aug-19 09:15N 40°49' E 014°06'1 1.4
2017-Aug-19 08:50N 40°49' E 014°07'1 3.3
2017-Aug-19 08:30N 40°48' E 014°06'611.8
2017-Aug-19 08:00N 40°46' E 013°59'1 0.9
2017-Aug-19 07:19N 40°46' E 013°59'7 0.5
2017-Aug-18 16:02N 40°49' E 014°07'0 0.0
2017-Aug-18 16:00N 40°49' E 014°07'2 5.0
2017-Aug-18 15:31N 40°47' E 014°06'8 9.6
2017-Aug-18 14:43N 40°45' E 013°56'0 0.0
2017-Aug-18 14:21N 40°45' E 013°56'0 0.0
2017-Aug-18 13:30N 40°45' E 013°56'0 0.0
2017-Aug-18 13:00N 40°45' E 013°56'0 0.0
2017-Aug-18 12:01N 40°45' E 013°56'0 0.9
2017-Aug-18 11:59N 40°45' E 013°56'612.2
2017-Aug-18 11:30N 40°46' E 014°04'4 7.8
2017-Aug-18 11:01N 40°49' E 014°07'0 0.1
2017-Aug-18 10:30N 40°49' E 014°07'2 3.7
2017-Aug-18 10:00N 40°49' E 014°05'0 0.3
2017-Aug-18 09:30N 40°49' E 014°05'2 3.6
2017-Aug-18 09:00N 40°49' E 014°07'1 3.0
2017-Aug-18 08:30N 40°48' E 014°06'8 6.8
2017-Aug-18 07:21N 40°45' E 013°57'513.4
2017-Aug-18 07:00N 40°46' E 014°03'5 9.2
2017-Aug-18 06:30N 40°49' E 014°07'0 0.0
2017-Aug-18 06:00N 40°49' E 014°07'0 0.0
2017-Aug-18 05:30N 40°49' E 014°07'0 0.0
2017-Aug-17 21:47N 40°49' E 014°07'0 0.0
2017-Aug-17 18:17N 40°49' E 014°07'0 0.0
2017-Aug-17 18:00N 40°49' E 014°07'0 0.0
2017-Aug-17 17:31N 40°49' E 014°07'0 0.0
2017-Aug-17 16:17N 40°49' E 014°07'0 0.0
2017-Aug-17 16:00N 40°49' E 014°07'2 5.0
2017-Aug-17 15:30N 40°47' E 014°06'713.2
2017-Aug-17 15:00N 40°46' E 013°58'1 2.5
2017-Aug-17 14:29N 40°45' E 013°56'0 0.0
2017-Aug-17 13:59N 40°45' E 013°56'0 0.0
2017-Aug-17 13:30N 40°45' E 013°56'0 0.0
2017-Aug-17 13:00N 40°45' E 013°56'0 0.4
2017-Aug-17 11:52N 40°45' E 013°57'513.2
2017-Aug-17 11:29N 40°46' E 014°03'4 8.9
2017-Aug-17 11:00N 40°49' E 014°07'0 0.0
2017-Aug-17 10:30N 40°49' E 014°07'0 0.0
2017-Aug-17 10:00N 40°49' E 014°07'0 0.0
2017-Aug-17 08:37N 40°49' E 014°07'610.9
2017-Aug-17 08:03N 40°46' E 014°00'5 3.6
2017-Aug-17 06:48N 40°47' E 014°06'2 3.0
2017-Aug-17 06:02N 40°49' E 014°07'0 0.0
2017-Aug-17 06:00N 40°49' E 014°07'0 0.0
2017-Aug-16 15:52N 40°49' E 014°07'2 5.1
2017-Aug-16 15:30N 40°48' E 014°06'8 2.3
2017-Aug-16 12:00N 40°45' E 013°56'5 9.2
2017-Aug-16 11:30N 40°46' E 014°02'5 9.8
2017-Aug-16 11:00N 40°49' E 014°07'0 0.0
2017-Aug-16 10:27N 40°49' E 014°07'0 0.0
2017-Aug-16 09:57N 40°49' E 014°07'0 0.0
2017-Aug-16 09:13N 40°49' E 014°07'0 0.1
2017-Aug-16 08:30N 40°49' E 014°07'610.9
2017-Aug-16 07:59N 40°46' E 014°01'2 2.5
2017-Aug-16 07:13N 40°46' E 013°58'413.1
2017-Aug-16 06:56N 40°47' E 014°03'4 9.7
2017-Aug-16 06:30N 40°49' E 014°07'0 0.0
2017-Aug-16 06:00N 40°49' E 014°07'0 0.0
2017-Aug-15 17:42N 40°49' E 014°07'411.0
2017-Aug-15 17:22N 40°46' E 014°04'2 2.4
2017-Aug-15 16:21N 40°46' E 014°01'411.6
2017-Aug-15 16:00N 40°48' E 014°06'1 2.5
2017-Aug-15 15:30N 40°49' E 014°06'8 2.6
2017-Aug-15 12:16N 40°45' E 013°57'312.8
2017-Aug-15 12:00N 40°46' E 014°01'610.7
2017-Aug-15 11:29N 40°49' E 014°07'6 8.6
2017-Aug-15 10:49N 40°46' E 014°01'411.8
2017-Aug-15 10:30N 40°45' E 013°56'4 6.2
2017-Aug-15 09:48N 40°46' E 014°02'311.5
2017-Aug-15 09:30N 40°47' E 014°06'2 2.7
2017-Aug-15 08:42N 40°49' E 014°07'212.2
2017-Aug-15 08:30N 40°47' E 014°06'4 3.2
2017-Aug-15 07:19N 40°46' E 014°01'3 6.3
2017-Aug-15 06:54N 40°46' E 014°04'4 0.4
2017-Aug-14 20:31N 40°49' E 014°07'0 0.0
2017-Aug-14 20:30N 40°49' E 014°07'0 0.0
2017-Aug-14 19:45N 40°49' E 014°07'0 0.0
2017-Aug-14 19:30N 40°49' E 014°07'5 0.7
2017-Aug-14 11:38N 40°46' E 014°01'112.4
2017-Aug-14 11:31N 40°47' E 014°03'4 1.4
2017-Aug-14 08:34N 40°49' E 014°07'8 0.5
2017-Aug-13 16:37N 40°44' E 013°60'3 0.4
2017-Aug-13 09:55N 40°46' E 014°02'3 1.2
2017-Aug-13 07:35N 40°44' E 013°59'  
Track history (hours):
 
Tides and Currents Weather Stations Pressure Air Temp Water Temp Dewpoint Dewpoint Depression Visibility Wind Speed Wind Dir Waves Ship Positions

Adriatic Princess

Last reported at 2017-Aug-22 16:22 UTC. Time now 2017-Aug-24 08:55 UTC.
Position N 40°49' E 014°07'.

Length 32 m; draft 1.8 m.

Type: Ship (hazmat cat B). MMSI: 247165700.

Date/timePositionNaut miles runAvg speedWind from/ knotsBaromVisibWave heightAir tempDewpointWater temp
2017-Aug-22 16:22N 40°49' E 014°07'9 3.4
2017-Aug-22 13:36N 40°45' E 013°56'0 0.0
2017-Aug-22 13:30N 40°45' E 013°56'0 0.0
2017-Aug-22 13:00N 40°45' E 013°56'0 0.0
2017-Aug-22 12:30N 40°45' E 013°56'0 0.8
2017-Aug-22 12:00N 40°45' E 013°57'713.0
2017-Aug-22 11:30N 40°46' E 014°05'3 1.2
2017-Aug-22 08:48N 40°49' E 014°07'5 3.0
2017-Aug-22 07:04N 40°46' E 014°01'213.7
2017-Aug-22 06:55N 40°46' E 014°04'6 0.4
2017-Aug-21 14:09N 40°45' E 013°56'6 2.3
2017-Aug-21 11:31N 40°46' E 014°04'2 0.5
2017-Aug-21 07:10N 40°46' E 014°01'2 0.1
2017-Aug-20 16:17N 40°46' E 014°03'6 2.0
2017-Aug-20 13:25N 40°45' E 013°56'0 0.0
2017-Aug-20 13:00N 40°45' E 013°56'7 5.5
2017-Aug-20 11:41N 40°47' E 014°06'213.4
2017-Aug-20 11:30N 40°49' E 014°06'3 5.6
2017-Aug-20 11:01N 40°46' E 014°05'0 0.3
2017-Aug-20 09:39N 40°46' E 014°04'411.3
2017-Aug-20 09:20N 40°49' E 014°07'8 5.1
2017-Aug-20 07:45N 40°45' E 013°57'8 1.6
2017-Aug-20 02:25N 40°49' E 014°07'1 3.1
2017-Aug-20 02:00N 40°48' E 014°06'611.9
2017-Aug-20 01:30N 40°46' E 013°59'5 0.9
2017-Aug-19 19:48N 40°47' E 014°06'3 3.0
2017-Aug-19 18:54N 40°49' E 014°07'0 0.0
2017-Aug-19 18:06N 40°49' E 014°07'0 0.8
2017-Aug-19 18:00N 40°49' E 014°07'5 7.8
2017-Aug-19 17:21N 40°46' E 014°02'4 2.9
2017-Aug-19 16:02N 40°48' E 014°06'113.1
2017-Aug-19 15:55N 40°49' E 014°07'1 2.8
2017-Aug-19 15:30N 40°48' E 014°06'8 2.3
2017-Aug-19 12:00N 40°45' E 013°57'713.2
2017-Aug-19 11:30N 40°46' E 014°05'6 5.5
2017-Aug-19 10:22N 40°45' E 013°57'0 0.3
2017-Aug-19 09:56N 40°45' E 013°57'811.6
2017-Aug-19 09:15N 40°49' E 014°06'1 1.4
2017-Aug-19 08:50N 40°49' E 014°07'1 3.3
2017-Aug-19 08:30N 40°48' E 014°06'611.8
2017-Aug-19 08:00N 40°46' E 013°59'1 0.9
2017-Aug-19 07:19N 40°46' E 013°59'7 0.5
2017-Aug-18 16:02N 40°49' E 014°07'0 0.0
2017-Aug-18 16:00N 40°49' E 014°07'2 5.0
2017-Aug-18 15:31N 40°47' E 014°06'8 9.6
2017-Aug-18 14:43N 40°45' E 013°56'0 0.0
2017-Aug-18 14:21N 40°45' E 013°56'0 0.0
2017-Aug-18 13:30N 40°45' E 013°56'0 0.0
2017-Aug-18 13:00N 40°45' E 013°56'0 0.0
2017-Aug-18 12:01N 40°45' E 013°56'0 0.9
2017-Aug-18 11:59N 40°45' E 013°56'612.2
2017-Aug-18 11:30N 40°46' E 014°04'4 7.8
2017-Aug-18 11:01N 40°49' E 014°07'0 0.1
2017-Aug-18 10:30N 40°49' E 014°07'2 3.7
2017-Aug-18 10:00N 40°49' E 014°05'0 0.3
2017-Aug-18 09:30N 40°49' E 014°05'2 3.6
2017-Aug-18 09:00N 40°49' E 014°07'1 3.0
2017-Aug-18 08:30N 40°48' E 014°06'8 6.8
2017-Aug-18 07:21N 40°45' E 013°57'513.4
2017-Aug-18 07:00N 40°46' E 014°03'5 9.2
2017-Aug-18 06:30N 40°49' E 014°07'0 0.0
2017-Aug-18 06:00N 40°49' E 014°07'0 0.0
2017-Aug-18 05:30N 40°49' E 014°07'0 0.0
2017-Aug-17 21:47N 40°49' E 014°07'0 0.0
2017-Aug-17 18:17N 40°49' E 014°07'0 0.0
2017-Aug-17 18:00N 40°49' E 014°07'0 0.0
2017-Aug-17 17:31N 40°49' E 014°07'0 0.0
2017-Aug-17 16:17N 40°49' E 014°07'0 0.0
2017-Aug-17 16:00N 40°49' E 014°07'2 5.0
2017-Aug-17 15:30N 40°47' E 014°06'713.2
2017-Aug-17 15:00N 40°46' E 013°58'1 2.5
2017-Aug-17 14:29N 40°45' E 013°56'0 0.0
2017-Aug-17 13:59N 40°45' E 013°56'0 0.0
2017-Aug-17 13:30N 40°45' E 013°56'0 0.0
2017-Aug-17 13:00N 40°45' E 013°56'0 0.4
2017-Aug-17 11:52N 40°45' E 013°57'513.2
2017-Aug-17 11:29N 40°46' E 014°03'4 8.9
2017-Aug-17 11:00N 40°49' E 014°07'0 0.0
2017-Aug-17 10:30N 40°49' E 014°07'0 0.0
2017-Aug-17 10:00N 40°49' E 014°07'0 0.0
2017-Aug-17 08:37N 40°49' E 014°07'610.9
2017-Aug-17 08:03N 40°46' E 014°00'5 3.6
2017-Aug-17 06:48N 40°47' E 014°06'2 3.0
2017-Aug-17 06:02N 40°49' E 014°07'0 0.0
2017-Aug-17 06:00N 40°49' E 014°07'0 0.0
2017-Aug-16 15:52N 40°49' E 014°07'2 5.1
2017-Aug-16 15:30N 40°48' E 014°06'8 2.3
2017-Aug-16 12:00N 40°45' E 013°56'5 9.2
2017-Aug-16 11:30N 40°46' E 014°02'5 9.8
2017-Aug-16 11:00N 40°49' E 014°07'0 0.0
2017-Aug-16 10:27N 40°49' E 014°07'0 0.0
2017-Aug-16 09:57N 40°49' E 014°07'0 0.0
2017-Aug-16 09:13N 40°49' E 014°07'0 0.1
2017-Aug-16 08:30N 40°49' E 014°07'610.9
2017-Aug-16 07:59N 40°46' E 014°01'2 2.5
2017-Aug-16 07:13N 40°46' E 013°58'413.1
2017-Aug-16 06:56N 40°47' E 014°03'4 9.7
2017-Aug-16 06:30N 40°49' E 014°07'0 0.0
2017-Aug-16 06:00N 40°49' E 014°07'0 0.0
2017-Aug-15 17:42N 40°49' E 014°07'411.0
2017-Aug-15 17:22N 40°46' E 014°04'2 2.4
2017-Aug-15 16:21N 40°46' E 014°01'411.6
2017-Aug-15 16:00N 40°48' E 014°06'1 2.5
2017-Aug-15 15:30N 40°49' E 014°06'8 2.6
2017-Aug-15 12:16N 40°45' E 013°57'312.8
2017-Aug-15 12:00N 40°46' E 014°01'610.7
2017-Aug-15 11:29N 40°49' E 014°07'6 8.6
2017-Aug-15 10:49N 40°46' E 014°01'411.8
2017-Aug-15 10:30N 40°45' E 013°56'4 6.2
2017-Aug-15 09:48N 40°46' E 014°02'311.5
2017-Aug-15 09:30N 40°47' E 014°06'2 2.7
2017-Aug-15 08:42N 40°49' E 014°07'212.2
2017-Aug-15 08:30N 40°47' E 014°06'4 3.2
2017-Aug-15 07:19N 40°46' E 014°01'3 6.3
2017-Aug-15 06:54N 40°46' E 014°04'4 0.4
2017-Aug-14 20:31N 40°49' E 014°07'0 0.0
2017-Aug-14 20:30N 40°49' E 014°07'0 0.0
2017-Aug-14 19:45N 40°49' E 014°07'0 0.0
2017-Aug-14 19:30N 40°49' E 014°07'5 0.7
2017-Aug-14 11:38N 40°46' E 014°01'112.4
2017-Aug-14 11:31N 40°47' E 014°03'4 1.4
2017-Aug-14 08:34N 40°49' E 014°07'8 0.5
2017-Aug-13 16:37N 40°44' E 013°60'3 0.4
2017-Aug-13 09:55N 40°46' E 014°02'3 1.2
2017-Aug-13 07:35N 40°44' E 013°59'  

Dump ship's entire track history